24h
KLIENDITUGI:
Saartelennuliinid: +372 58856336 (24/7)
Estairi piletikassa lennujaamas:
+372 6058887; +372 55603687

13.03.2018 hommikune Transaviabaltika lend KTB670 kell 07:00 (kohalik aeg) Tallinn - Kärdla väljalend ja KTB671 kell 07:45 Kärdla – Tallinn väljalend on tühistatud. Lennu tühistamise põhjustab väga madal pilvisus Kärdla lennujaamas. Kõikidele reisijatele tagastatakse piletiraha. Lisainfo telefonilt +37258856336.

EEKA Kärdla lennuväli ilm

FCEO32 EETN 130400 TAF EEKA 130400Z 1305/1311 16009KT 3000 BR BKN002 OVC005

TEMPO 1305/1308 0800 DZ FG VV002 TEMPO 1308/1311 0500 RADZ FG VV003=

METAR EEKA 130350Z 16008KT 5000 -RA BR BKN002 02/// Q0991=
Kuupäev: 
13/03/2018